Fabian Garcia SC

2020-08-10 13:40:00

  • imperial
Date Time Air Temperature Relative Humidity Dewpoint Windchill Heat Index Wind Speed Wind Dir. Rain Solar Radiation Soil Temperature
2m 2m 3m 3m 10cm
US/Mountain F % F F F MPH deg in MJ/m^2 F
max avg avg
2020-08-09 13:50:00 97.6 22.7 53.2 97.6 97.6 2.6 6.7 3.0 185.8 179.8 0.00 0.2752626 84.0
2020-08-09 13:55:00 98.5 20.6 51.4 98.5 98.5 2.6 4.9 2.7 127.1 161.7 0.00 0.2741100 84.1
2020-08-09 14:00:00 98.0 21.7 52.3 98.0 98.0 4.9 4.9 3.0 171.4 199.3 0.00 0.2728051 84.3
2020-08-09 14:05:00 98.6 20.0 50.6 98.6 98.6 3.5 5.8 2.5 134.0 127.6 0.00 0.2713721 84.5
2020-08-09 14:10:00 98.8 20.2 51.1 98.8 98.8 4.2 5.3 2.9 140.7 164.9 0.00 0.2710292 84.6
2020-08-09 14:15:00 97.1 22.3 52.3 97.1 97.1 4.4 7.4 4.0 244.0 223.1 0.00 0.2695387 84.8
2020-08-09 14:20:00 97.6 20.5 50.5 97.6 97.6 3.1 7.8 4.1 238.2 204.3 0.00 0.2693326 84.9
2020-08-09 14:25:00 96.6 21.0 50.2 96.6 96.6 6.0 8.1 5.3 217.2 223.5 0.00 0.2679978 85.1
2020-08-09 14:30:00 96.6 22.9 52.7 96.6 96.6 4.7 7.2 5.4 236.7 213.2 0.00 0.2666755 85.2
2020-08-09 14:35:00 96.3 21.9 51.2 96.3 96.3 6.0 6.0 4.0 184.3 240.4 0.00 0.2653153 85.4
2020-08-09 14:40:00 98.3 21.3 52.1 98.3 98.3 2.8 7.2 4.6 147.8 180.0 0.00 0.2640824 85.5
2020-08-09 14:45:00 98.2 19.8 50.1 98.2 98.2 4.9 7.8 4.2 199.7 184.1 0.00 0.2631604 85.7
2020-08-09 14:50:00 99.0 20.2 51.1 99.0 99.0 3.0 6.3 3.9 186.0 184.4 0.00 0.2623402 85.8
2020-08-09 14:55:00 99.4 18.9 49.7 99.4 99.4 2.8 6.5 3.8 155.9 154.8 0.00 0.2614219 85.9
2020-08-09 15:00:00 100.2 18.3 49.5 100.2 100.2 6.7 6.7 2.2 202.5 204.6 0.00 0.2622567 86.1
2020-08-09 15:05:00 100.0 18.8 50.1 100.0 100.0 2.6 6.5 3.6 173.7 176.9 0.00 0.2649339 86.2
2020-08-09 15:10:00 98.9 18.0 48.0 98.9 98.9 3.8 8.5 4.8 157.3 195.6 0.00 0.2303027 86.3
2020-08-09 15:15:00 99.9 17.5 48.1 99.9 99.9 1.3 4.4 2.8 135.2 162.3 0.00 0.2070286 86.5
2020-08-09 15:20:00 100.6 17.1 48.0 100.6 100.6 1.9 4.7 2.5 107.8 143.4 0.00 0.2192261 86.6
2020-08-09 15:25:00 100.8 16.6 47.5 100.8 100.8 3.7 6.0 3.9 182.6 173.5 0.00 0.2741416 86.7
2020-08-09 15:30:00 100.7 17.9 49.4 100.7 100.7 3.3 5.1 3.3 157.0 138.3 0.00 0.2685420 86.8
2020-08-09 15:35:00 99.9 17.7 48.3 99.9 99.9 5.8 7.4 4.3 251.0 203.4 0.00 0.2586045 86.9
2020-08-09 15:40:00 100.1 17.8 48.8 100.1 100.1 4.2 7.1 3.9 211.7 206.6 0.00 0.2514710 87.0
2020-08-09 15:45:00 100.5 17.2 48.0 100.5 100.5 4.4 6.0 4.1 186.7 174.4 0.00 0.2509239 87.1
2020-08-09 15:50:00 101.2 17.2 48.6 101.2 101.2 3.3 5.5 3.7 222.9 183.3 0.00 0.2479741 87.2
2020-08-09 15:55:00 101.2 16.8 48.1 101.2 101.2 2.2 6.2 3.7 170.5 174.9 0.00 0.2407122 87.3
2020-08-09 16:00:00 100.4 18.1 49.4 100.4 100.4 4.6 8.5 5.4 199.7 185.5 0.00 0.2372765 87.4
2020-08-09 16:05:00 101.0 17.6 49.2 101.0 101.0 3.8 7.2 4.6 194.5 175.9 0.00 0.2306114 87.5
2020-08-09 16:10:00 98.9 18.8 49.2 98.9 98.9 2.2 7.8 5.1 205.9 207.8 0.00 0.1006582 87.6
2020-08-09 16:15:00 96.9 20.8 50.3 96.9 96.9 4.7 8.7 3.5 160.5 161.2 0.00 0.0397005 87.7
2020-08-09 16:20:00 94.8 23.3 51.7 94.8 94.8 3.0 8.3 5.4 280.1 205.3 0.00 0.0396672 87.8
2020-08-09 16:25:00 93.9 25.1 52.8 93.9 93.9 3.5 7.6 5.2 240.8 257.9 0.00 0.0434432 87.8
2020-08-09 16:30:00 93.9 24.5 52.2 93.9 93.9 4.2 5.8 4.1 251.5 249.6 0.00 0.0534675 87.9
2020-08-09 16:35:00 96.6 22.6 52.2 96.6 96.6 1.2 4.6 3.0 177.8 196.9 0.00 0.2156929 87.9
2020-08-09 16:40:00 98.6 20.8 51.6 98.6 98.6 0.0 2.4 1.1 25.0 139.6 0.00 0.2009915 87.9
2020-08-09 16:45:00 98.7 20.3 51.1 98.7 98.7 2.6 7.6 3.9 182.5 194.5 0.00 0.1861467 87.9
2020-08-09 16:50:00 99.3 19.2 50.1 99.3 99.3 1.5 4.0 2.3 323.1 215.0 0.00 0.1783120 87.9
2020-08-09 16:55:00 99.9 18.5 49.5 99.9 99.9 1.9 4.0 2.5 28.5 355.8 0.00 0.1740826 87.9
2020-08-09 17:00:00 99.9 18.0 48.8 99.9 99.9 1.7 4.2 2.5 328.9 343.3 0.00 0.1392519 88.0
2020-08-09 17:05:00 98.9 17.9 47.9 98.9 98.9 2.4 7.4 3.0 340.3 359.3 0.00 0.0630296 88.0
2020-08-09 17:10:00 97.2 18.1 46.8 97.2 97.2 1.0 6.5 3.7 5.1 1.6 0.00 0.0206903 88.0
2020-08-09 17:15:00 96.5 18.9 47.5 96.5 96.5 2.1 3.3 1.7 318.4 347.9 0.00 0.0210671 88.0
2020-08-09 17:20:00 97.7 18.1 47.2 97.7 97.7 1.5 3.3 1.7 242.7 265.7 0.00 0.1364826 88.0
2020-08-09 17:25:00 98.5 18.1 47.8 98.5 98.5 2.2 4.0 2.5 238.4 266.8 0.00 0.1081222 88.0
2020-08-09 17:30:00 98.6 20.0 50.6 98.6 98.6 2.4 4.6 2.0 236.5 229.9 0.00 0.0899271 88.0
2020-08-09 17:35:00 97.1 19.3 48.4 97.1 97.1 3.7 4.9 3.0 272.3 250.8 0.00 0.0757176 88.0
2020-08-09 17:40:00 98.6 18.0 47.8 98.6 98.6 2.6 5.5 3.1 235.8 280.2 0.00 0.1314790 88.1
2020-08-09 17:45:00 99.2 17.4 47.4 99.2 99.2 6.0 6.2 2.8 0.7 2.3 0.00 0.1242920 88.0
2020-08-09 17:50:00 99.1 17.2 47.0 99.1 99.1 2.6 6.3 4.4 16.8 349.1 0.00 0.1177090 88.0
2020-08-09 17:55:00 98.6 17.0 46.3 98.6 98.6 1.2 5.5 3.0 66.8 64.0 0.00 0.1127065 88.0
2020-08-09 18:00:00 99.9 16.8 47.0 99.9 99.9 3.5 4.2 1.5 11.2 20.8 0.00 0.1035487 88.0
2020-08-09 18:05:00 100.3 16.6 47.1 100.3 100.3 1.0 4.0 1.8 229.9 292.9 0.00 0.0931138 88.0
2020-08-09 18:10:00 99.4 16.2 45.7 99.4 99.4 2.4 5.3 2.8 278.3 262.0 0.00 0.0823155 88.0
2020-08-09 18:15:00 99.3 16.6 46.2 99.3 99.3 1.9 3.0 1.4 62.8 301.8 0.00 0.0700867 88.0
2020-08-09 18:20:00 99.2 16.0 45.2 99.2 99.2 2.6 3.3 2.0 88.1 79.5 0.00 0.0639506 88.0
2020-08-09 18:25:00 98.6 17.0 46.2 98.6 98.6 0.0 3.0 0.8 2.0 105.8 0.00 0.0175110 87.9
2020-08-09 18:30:00 96.5 22.2 51.7 96.5 96.5 0.8 3.0 1.7 174.0 213.3 0.00 0.0251249 87.9
2020-08-09 18:35:00 95.4 21.5 49.9 95.4 95.4 0.0 3.3 1.5 184.7 195.5 0.00 0.0161407 87.9
2020-08-09 18:40:00 94.3 24.7 52.8 94.3 94.3 0.0 1.3 0.3 306.7 262.4 0.00 0.0118633 87.9
2020-08-09 18:45:00 92.4 26.7 53.3 92.4 92.4 1.0 2.2 1.0 222.1 223.6 0.00 0.0097955 87.8
2020-08-09 18:50:00 91.5 27.6 53.4 91.5 91.5 0.0 1.2 0.1 239.6 288.8 0.00 0.0074349 87.8
2020-08-09 18:55:00 89.9 30.5 54.8 89.9 89.9 2.6 3.5 2.5 204.0 230.0 0.00 0.0064139 87.7
2020-08-09 19:00:00 90.0 29.2 53.7 90.0 90.0 2.1 3.7 2.8 205.9 204.2 0.00 0.0054699 87.7
2020-08-09 19:05:00 89.2 31.8 55.4 89.2 89.2 2.1 2.4 2.1 195.3 205.2 0.00 0.0047033 87.6
2020-08-09 19:10:00 89.1 31.8 55.2 89.1 89.1 2.1 2.4 2.1 198.8 199.8 0.00 0.0043078 87.6
2020-08-09 19:15:00 88.8 33.0 56.0 88.8 88.8 1.9 2.4 1.9 216.4 209.2 0.00 0.0040235 87.5
2020-08-09 19:20:00 88.2 34.7 56.9 88.2 88.2 1.7 2.2 2.0 230.2 223.8 0.00 0.0042274 87.4
2020-08-09 19:25:00 87.8 34.4 56.2 87.8 87.8 0.0 1.9 1.0 263.8 252.4 0.00 0.0046816 87.4
2020-08-09 19:30:00 87.5 37.1 58.2 87.5 87.5 0.0 0.0 0.0 274.4 0.0 0.00 0.0054345 87.3
2020-08-09 19:35:00 87.3 35.8 57.0 87.3 87.3 1.0 1.0 0.1 209.0 208.8 0.00 0.0042419 87.2
2020-08-09 19:40:00 87.2 36.0 57.0 87.2 87.2 2.2 2.2 1.2 260.5 245.6 0.00 0.0030857 87.2
2020-08-09 19:45:00 87.9 33.0 55.2 87.9 87.9 7.8 7.8 3.9 232.4 252.2 0.00 0.0020464 87.1
2020-08-09 19:50:00 90.0 24.7 49.1 90.0 90.0 10.6 18.5 8.5 267.0 273.4 0.00 0.0013784 87.0
2020-08-09 19:55:00 90.2 23.4 47.9 90.2 90.2 6.2 14.6 8.3 266.5 280.4 0.00 0.0009768 86.9
2020-08-09 20:00:00 90.5 23.0 47.6 90.5 90.5 2.6 8.5 5.1 327.1 281.4 0.00 0.0006782 86.9
2020-08-09 20:05:00 90.5 23.0 47.7 90.5 90.5 4.2 10.5 4.5 319.2 291.4 0.00 0.0004239 86.8
2020-08-09 20:10:00 90.3 23.4 47.9 90.3 90.3 3.0 8.7 5.1 312.2 301.5 0.00 0.0002079 86.7
2020-08-09 20:15:00 90.2 23.0 47.3 90.2 90.2 3.8 10.6 5.3 320.2 328.3 0.00 0.0000888 86.6
2020-08-09 20:20:00 90.3 22.6 47.0 90.3 90.3 7.1 13.0 9.3 318.0 335.3 0.00 0.0000384 86.6
2020-08-09 20:25:00 90.7 22.1 46.8 90.7 90.7 10.6 12.8 8.3 338.9 333.0 0.00 0.0000020 86.5
2020-08-09 20:30:00 90.9 21.9 46.6 90.9 90.9 10.1 11.2 8.6 330.1 337.4 0.00 0.0000000 86.4
2020-08-09 20:35:00 90.8 22.2 47.0 90.8 90.8 9.4 9.9 6.9 342.1 334.3 0.00 0.0000000 86.3
2020-08-09 20:40:00 90.8 22.1 46.8 90.8 90.8 8.0 10.5 7.7 338.6 337.9 0.00 0.0000000 86.2
2020-08-09 20:45:00 90.5 22.8 47.4 90.5 90.5 6.3 7.4 6.2 341.0 347.9 0.00 0.0000000 86.1
2020-08-09 20:50:00 90.0 23.9 48.3 90.0 90.0 0.8 7.1 3.1 6.2 303.2 0.00 0.0000000 86.1
2020-08-09 20:55:00 89.6 22.4 46.2 89.6 89.6 2.1 6.5 2.7 327.0 286.5 0.00 0.0000000 86.0
2020-08-09 21:00:00 90.0 19.0 42.2 90.0 90.0 3.7 12.8 4.9 313.5 320.8 0.00 0.0000000 85.9
2020-08-09 21:05:00 90.3 18.6 41.8 90.3 90.3 8.7 13.1 7.1 305.5 332.9 0.00 0.0000020 85.8
2020-08-09 21:10:00 90.8 17.9 41.3 90.8 90.8 16.5 17.6 12.8 7.2 342.3 0.00 0.0000000 85.7
2020-08-09 21:15:00 90.8 17.9 41.4 90.8 90.8 8.0 15.3 10.7 10.6 342.4 0.00 0.0000000 85.6
2020-08-09 21:20:00 91.0 17.6 41.1 91.0 91.0 11.3 13.5 10.8 336.3 344.1 0.00 0.0000000 85.6
2020-08-09 21:25:00 91.1 17.7 41.3 91.1 91.1 6.9 11.7 8.4 340.5 351.3 0.00 0.0000000 85.5
2020-08-09 21:30:00 90.9 17.6 40.9 90.9 90.9 4.9 9.0 6.6 30.5 8.0 0.00 0.0000000 85.4
2020-08-09 21:35:00 90.8 17.7 41.1 90.8 90.8 5.6 7.2 4.4 341.9 15.1 0.00 0.0000000 85.3
2020-08-09 21:40:00 90.5 18.2 41.5 90.5 90.5 3.3 7.1 3.9 52.3 29.8 0.00 0.0000000 85.2
2020-08-09 21:45:00 90.0 19.1 42.3 90.0 90.0 2.8 3.5 2.6 110.3 98.7 0.00 0.0000000 85.2
2020-08-09 21:50:00 89.1 21.4 44.5 89.1 89.1 4.0 5.5 3.8 92.0 98.9 0.00 0.0000000 85.0
2020-08-09 21:55:00 88.7 21.6 44.5 88.7 88.7 2.1 4.9 2.7 106.9 101.1 0.00 0.0000000 85.0
2020-08-09 22:00:00 88.6 21.5 44.3 88.6 88.6 3.3 6.0 3.5 92.4 96.1 0.00 0.0000000 85.0
2020-08-09 22:05:00 88.6 21.6 44.4 88.6 88.6 2.4 4.0 2.8 62.5 77.0 0.00 0.0000000 84.8
2020-08-09 22:10:00 88.8 22.1 45.1 88.8 88.8 2.6 5.5 3.6 72.5 65.4 0.00 0.0000040 84.8
2020-08-09 22:15:00 88.7 22.7 45.8 88.7 88.7 4.4 5.3 3.8 88.2 93.5 0.00 0.0000081 84.7
2020-08-09 22:20:00 88.1 23.6 46.4 88.1 88.1 2.2 4.0 2.1 165.5 116.7 0.00 0.0000161 84.6
2020-08-09 22:25:00 86.5 25.3 46.9 86.5 86.5 2.4 4.9 2.5 235.2 203.7 0.00 0.0000343 84.6
2020-08-09 22:30:00 84.9 26.8 47.0 84.9 84.9 0.0 2.4 1.0 227.0 243.5 0.00 0.0000242 84.5
2020-08-09 22:35:00 84.1 27.8 47.3 84.1 84.1 1.0 2.4 0.4 24.3 343.6 0.00 0.0000363 84.4
2020-08-09 22:40:00 83.4 28.4 47.3 83.4 83.4 0.8 1.7 0.7 14.4 0.3 0.00 0.0000485 84.4
2020-08-09 22:45:00 83.3 28.8 47.5 83.3 83.3 0.0 1.7 0.3 4.1 28.2 0.00 0.0000384 84.3
2020-08-09 22:50:00 82.5 31.7 49.4 82.5 82.5 1.9 2.1 0.6 223.9 249.9 0.00 0.0000303 84.2
2020-08-09 22:55:00 81.7 32.9 49.7 81.7 81.7 3.5 3.8 2.6 186.2 215.6 0.00 0.0000202 84.1
2020-08-09 23:00:00 81.4 32.9 49.5 81.4 81.4 6.3 6.3 3.7 260.0 221.4 0.00 0.0000000 84.1
2020-08-09 23:05:00 85.3 26.6 47.1 85.3 85.3 2.2 7.8 4.6 294.3 284.7 0.00 0.0000000 84.0
2020-08-09 23:10:00 84.6 28.9 48.7 84.6 84.6 0.8 2.8 1.5 143.9 196.0 0.00 0.0000000 83.9
2020-08-09 23:15:00 83.2 31.0 49.5 83.2 83.2 2.1 2.6 1.9 174.0 167.6 0.00 0.0000000 83.9
2020-08-09 23:20:00 82.3 33.1 50.4 82.3 82.3 2.1 2.4 1.9 248.9 198.2 0.00 0.0000000 83.8
2020-08-09 23:25:00 81.5 34.5 50.8 81.5 81.5 2.1 2.6 2.3 215.5 215.3 0.00 0.0000000 83.7
2020-08-09 23:30:00 81.1 35.1 50.9 81.1 81.1 1.9 3.0 1.9 223.4 200.8 0.00 0.0000000 83.6
2020-08-09 23:35:00 80.4 36.2 51.2 80.4 80.4 3.1 3.1 2.5 229.3 221.0 0.00 0.0000000 83.6
2020-08-09 23:40:00 80.1 38.0 52.2 80.1 80.1 2.2 3.5 2.1 199.9 225.5 0.00 0.0000000 83.5
2020-08-09 23:45:00 80.1 38.6 52.6 80.1 80.1 0.0 2.6 0.6 188.0 184.6 0.00 0.0000000 83.5
2020-08-09 23:50:00 79.8 36.0 50.5 79.8 79.8 0.0 0.0 0.0 167.0 0.0 0.00 0.0000000 83.4
2020-08-09 23:55:00 79.8 39.8 53.3 79.8 79.8 0.0 0.0 0.0 182.4 0.0 0.00 0.0000000 83.4
2020-08-10 00:00:00 80.1 36.8 51.3 80.1 80.1 2.1 2.4 0.6 233.6 225.3 0.00 0.0000000 83.3
2020-08-10 00:05:00 79.8 38.2 52.1 79.8 79.8 1.5 2.2 1.7 233.0 221.3 0.00 0.0000000 83.3
2020-08-10 00:10:00 79.4 38.7 52.0 79.4 79.4 2.1 2.1 1.6 245.0 230.3 0.00 0.0000000 83.2
2020-08-10 00:15:00 79.5 39.4 52.6 79.5 79.5 0.0 1.9 1.1 239.8 254.9 0.00 0.0000000 83.1
2020-08-10 00:20:00 79.8 36.2 50.7 79.8 79.8 2.1 3.5 1.1 289.4 307.6 0.00 0.0000000 83.1
2020-08-10 00:25:00 82.8 27.1 45.5 82.8 82.8 10.5 14.4 3.9 328.5 315.1 0.00 0.0000000 83.0
2020-08-10 00:30:00 87.4 25.7 48.0 87.4 87.4 7.8 9.7 5.3 173.5 156.2 0.00 0.0000000 83.0
2020-08-10 00:35:00 89.5 25.9 50.0 89.5 89.5 12.1 14.0 6.9 33.9 132.1 0.00 0.0000000 82.9
2020-08-10 00:40:00 89.9 20.3 43.9 89.9 89.9 11.0 23.3 13.2 33.5 25.4 0.00 0.0000000 82.9
2020-08-10 00:45:00 90.3 19.7 43.4 90.3 90.3 14.4 14.4 8.7 0.5 12.7 0.00 0.0000000 82.8
2020-08-10 00:50:00 92.4 17.6 42.2 92.4 92.4 9.6 13.9 9.7 35.7 13.3 0.00 0.0000000 82.8
2020-08-10 00:55:00 91.8 18.9 43.6 91.8 91.8 2.6 13.1 7.7 14.0 24.8 0.00 0.0000000 82.8
2020-08-10 01:00:00 91.3 18.5 42.6 91.3 91.3 6.0 6.0 3.8 33.9 56.2 0.00 0.0000000 82.7
2020-08-10 01:05:00 91.6 16.9 40.4 91.6 91.6 13.0 16.5 5.5 34.5 34.2 0.00 0.0000000 82.7
2020-08-10 01:10:00 92.9 15.9 39.9 92.9 92.9 7.6 15.5 8.4 67.2 78.0 0.00 0.0000000 82.6
2020-08-10 01:15:00 93.5 15.1 39.1 93.5 93.5 3.1 12.6 5.7 139.2 111.8 0.00 0.0000000 82.6
2020-08-10 01:20:00 91.3 19.4 43.8 91.3 91.3 8.1 8.1 4.0 196.1 174.5 0.00 0.0000000 82.5
2020-08-10 01:25:00 89.1 22.1 45.5 89.1 89.1 5.6 8.3 5.9 212.4 198.2 0.00 0.0000000 82.5
2020-08-10 01:30:00 87.4 25.7 48.0 87.4 87.4 3.7 6.7 4.1 166.6 178.6 0.00 0.0000040 82.4
2020-08-10 01:35:00 85.1 30.4 50.5 85.1 85.1 3.7 6.0 3.9 157.0 181.9 0.00 0.0000061 82.4
2020-08-10 01:40:00 83.4 33.2 51.5 83.4 83.4 4.7 6.5 4.2 223.8 196.5 0.00 0.0000222 82.3
2020-08-10 01:45:00 82.4 34.9 51.9 82.4 82.4 4.2 5.8 3.9 194.5 195.1 0.00 0.0000363 82.3
2020-08-10 01:50:00 81.8 35.0 51.5 81.8 81.8 2.1 4.7 3.5 217.6 194.1 0.00 0.0000424 82.2
2020-08-10 01:55:00 81.4 35.7 51.6 81.4 81.4 1.9 3.0 0.9 2.4 230.0 0.00 0.0000464 82.2
2020-08-10 02:00:00 81.3 35.0 51.0 81.3 81.3 1.3 2.6 2.0 224.4 315.9 0.00 0.0000464 82.1
2020-08-10 02:05:00 81.1 35.1 51.0 81.1 81.1 2.8 5.8 2.6 88.0 102.2 0.00 0.0000182 82.1
2020-08-10 02:10:00 80.9 35.0 50.7 80.9 80.9 1.7 4.4 2.7 154.8 158.9 0.00 0.0000020 82.0
2020-08-10 02:15:00 80.9 34.5 50.4 80.9 80.9 2.8 3.7 1.4 147.5 155.9 0.00 0.0000000 82.0
2020-08-10 02:20:00 81.3 32.9 49.3 81.3 81.3 2.4 4.4 2.7 158.7 169.8 0.00 0.0000000 81.9
2020-08-10 02:25:00 81.5 32.7 49.4 81.5 81.5 3.1 4.6 2.9 184.6 172.6 0.00 0.0000000 81.8
2020-08-10 02:30:00 81.1 33.7 49.8 81.1 81.1 1.0 2.8 0.7 220.2 168.0 0.00 0.0000000 81.8
2020-08-10 02:35:00 80.4 35.1 50.3 80.4 80.4 4.4 4.4 1.1 341.8 345.5 0.00 0.0000000 81.8
2020-08-10 02:40:00 80.7 33.6 49.4 80.7 80.7 3.7 6.5 5.4 16.4 357.8 0.00 0.0000000 81.7
2020-08-10 02:45:00 81.4 30.6 47.6 81.4 81.4 3.8 7.4 4.8 14.9 356.8 0.00 0.0000000 81.7
2020-08-10 02:50:00 81.4 30.2 47.2 81.4 81.4 3.8 6.3 3.7 299.9 358.2 0.00 0.0000000 81.7
2020-08-10 02:55:00 81.7 28.9 46.2 81.7 81.7 3.8 7.4 4.4 330.0 339.9 0.00 0.0000000 81.6
2020-08-10 03:00:00 81.7 28.5 45.9 81.7 81.7 2.8 3.7 1.4 5.2 337.8 0.00 0.0000000 81.5
2020-08-10 03:05:00 81.3 29.7 46.6 81.3 81.3 2.4 2.8 1.9 278.0 304.0 0.00 0.0000000 81.5
2020-08-10 03:10:00 80.2 31.3 47.1 80.2 80.2 1.3 2.8 2.1 239.7 264.7 0.00 0.0000000 81.4
2020-08-10 03:15:00 79.2 32.9 47.6 79.2 79.2 2.6 3.1 2.5 248.4 238.7 0.00 0.0000000 81.4
2020-08-10 03:20:00 77.8 35.1 48.0 77.8 77.8 2.4 3.3 2.4 236.5 247.0 0.00 0.0000000 81.4
2020-08-10 03:25:00 77.5 34.6 47.4 77.5 77.5 1.5 3.1 2.5 264.2 250.8 0.00 0.0000000 81.3
2020-08-10 03:30:00 78.1 34.1 47.6 78.1 78.1 1.0 2.1 1.1 281.9 273.5 0.00 0.0000000 81.3
2020-08-10 03:35:00 78.2 34.1 47.6 78.2 78.2 1.7 2.8 1.7 227.8 247.6 0.00 0.0000000 81.2
2020-08-10 03:40:00 77.9 34.4 47.5 77.9 77.9 0.0 1.3 0.1 250.8 231.1 0.00 0.0000000 81.2
2020-08-10 03:45:00 77.8 34.9 47.9 77.8 77.8 2.4 2.4 0.2 0.2 12.8 0.00 0.0000020 81.1
2020-08-10 03:50:00 76.6 38.4 49.3 76.6 76.6 2.6 3.5 2.6 241.2 269.8 0.00 0.0000000 81.1
2020-08-10 03:55:00 76.2 39.3 49.6 76.2 76.2 3.7 3.8 1.8 226.7 218.4 0.00 0.0000061 81.0
2020-08-10 04:00:00 75.6 38.6 48.6 75.6 75.6 0.0 3.5 0.8 201.8 219.3 0.00 0.0000061 80.9
2020-08-10 04:05:00 75.1 41.2 49.9 75.1 75.1 1.3 1.9 0.4 93.3 90.5 0.00 0.0000121 80.9
2020-08-10 04:10:00 75.1 41.2 49.9 75.1 75.1 0.0 1.3 0.3 78.8 88.0 0.00 0.0000323 80.9
2020-08-10 04:15:00 75.1 39.9 49.1 75.1 75.1 1.0 1.9 0.5 121.5 107.7 0.00 0.0000303 80.8
2020-08-10 04:20:00 75.0 40.7 49.5 75.0 75.0 0.0 1.0 0.2 59.2 114.8 0.00 0.0000202 80.8
2020-08-10 04:25:00 76.7 37.9 49.1 76.7 76.7 2.4 3.0 1.7 96.3 87.7 0.00 0.0000303 80.7
2020-08-10 04:30:00 76.9 38.0 49.4 76.9 76.9 0.0 2.6 1.5 83.2 100.6 0.00 0.0000222 80.7
2020-08-10 04:35:00 76.5 40.6 50.7 76.5 76.5 0.0 0.8 0.1 202.2 127.1 0.00 0.0000121 80.6
2020-08-10 04:40:00 75.2 43.7 51.7 75.2 75.2 0.0 1.5 0.4 206.4 208.5 0.00 0.0000141 80.6
2020-08-10 04:45:00 74.5 44.0 51.2 74.5 74.5 0.0 0.0 0.0 230.7 0.0 0.00 0.0000081 80.5
2020-08-10 04:50:00 74.0 46.0 51.9 74.0 74.0 3.1 3.5 2.2 243.5 240.7 0.00 0.0000061 80.5
2020-08-10 04:55:00 73.4 46.7 51.8 73.4 73.4 3.1 3.8 2.8 240.7 247.0 0.00 0.0000081 80.4
2020-08-10 05:00:00 73.2 47.1 51.8 73.2 73.2 2.6 3.5 2.7 229.9 235.1 0.00 0.0000000 80.4
2020-08-10 05:05:00 72.7 47.6 51.6 72.7 72.7 1.3 2.6 2.0 224.8 230.4 0.00 0.0000020 80.3
2020-08-10 05:10:00 72.3 49.1 52.1 72.3 72.3 3.0 3.0 0.6 263.8 257.4 0.00 0.0000040 80.3
2020-08-10 05:15:00 72.2 48.7 51.7 72.2 72.2 2.4 3.3 2.8 252.5 262.6 0.00 0.0000020 80.2
2020-08-10 05:20:00 71.9 49.1 51.7 71.9 71.9 0.0 2.4 0.5 262.8 295.3 0.00 0.0000000 80.2
2020-08-10 05:25:00 71.9 48.9 51.6 71.9 71.9 3.5 4.2 2.4 277.2 276.4 0.00 0.0000000 80.2
2020-08-10 05:30:00 71.7 50.6 52.4 71.7 71.7 2.1 3.7 2.6 224.9 253.6 0.00 0.0000000 80.1
2020-08-10 05:35:00 71.6 50.7 52.3 71.6 71.6 1.7 2.6 1.8 243.7 229.3 0.00 0.0000000 80.0
2020-08-10 05:40:00 71.5 51.2 52.5 71.5 71.5 0.0 2.6 1.4 181.6 254.3 0.00 0.0000000 80.0
2020-08-10 05:45:00 71.3 53.0 53.3 71.3 71.3 0.0 0.0 0.0 200.6 0.0 0.00 0.0000000 79.9
2020-08-10 05:50:00 71.0 53.0 53.0 71.0 71.0 0.0 0.0 0.0 281.2 0.0 0.00 0.0000000 79.9
2020-08-10 05:55:00 70.5 53.8 53.0 70.5 70.5 1.2 1.3 0.3 243.2 248.1 0.00 0.0000000 79.8
2020-08-10 06:00:00 70.5 53.5 52.8 70.5 70.5 0.0 1.3 0.4 265.0 228.9 0.00 0.0000000 79.8
2020-08-10 06:05:00 70.4 53.1 52.5 70.4 70.4 0.0 0.0 0.0 262.6 0.0 0.00 0.0000000 79.8
2020-08-10 06:10:00 70.3 52.1 51.9 70.3 70.3 0.0 0.0 0.0 184.2 0.0 0.00 0.0000202 79.7
2020-08-10 06:15:00 70.5 52.4 52.2 70.5 70.5 0.0 0.0 0.0 245.1 0.0 0.00 0.0001515 79.6
2020-08-10 06:20:00 70.0 54.3 52.8 70.0 70.0 0.0 0.8 0.0 187.2 226.8 0.00 0.0003454 79.6
2020-08-10 06:25:00 69.9 54.1 52.6 69.9 69.9 0.0 1.9 0.8 224.0 175.2 0.00 0.0006646 79.6
2020-08-10 06:30:00 69.5 53.9 52.1 69.5 69.5 0.0 2.1 0.6 179.8 203.1 0.00 0.0012201 79.5
2020-08-10 06:35:00 69.5 52.3 51.3 69.5 69.5 0.0 0.0 0.0 198.1 0.0 0.00 0.0018949 79.4
2020-08-10 06:40:00 69.5 52.7 51.5 69.5 69.5 0.0 0.0 0.0 223.6 0.0 0.00 0.0026867 79.4
2020-08-10 06:45:00 69.4 52.9 51.5 69.4 69.4 0.0 0.0 0.0 206.1 0.0 0.00 0.0034988 79.4
2020-08-10 06:50:00 69.9 51.4 51.1 69.9 69.9 0.0 0.0 0.0 26.8 0.0 0.00 0.0050301 79.3
2020-08-10 06:55:00 70.2 51.4 51.4 70.2 70.2 0.0 2.2 0.7 213.1 200.1 0.00 0.0110317 79.3
2020-08-10 07:00:00 71.2 50.0 51.5 71.2 71.2 2.4 2.4 1.1 218.3 207.1 0.00 0.0151729 79.2
2020-08-10 07:05:00 71.6 50.6 52.3 71.6 71.6 0.0 2.4 2.0 203.2 215.8 0.00 0.0198376 79.2
2020-08-10 07:10:00 72.5 49.6 52.5 72.5 72.5 0.0 1.2 0.1 198.4 174.1 0.00 0.0252677 79.2
2020-08-10 07:15:00 73.3 49.7 53.4 73.3 73.3 0.0 0.0 0.0 290.8 0.0 0.00 0.0307852 79.1
2020-08-10 07:20:00 74.8 46.7 53.1 74.8 74.8 0.0 0.0 0.0 191.8 0.0 0.00 0.0356901 79.1
2020-08-10 07:25:00 75.8 46.9 54.1 75.8 75.8 1.0 1.2 0.1 189.9 192.7 0.00 0.0401437 79.0
2020-08-10 07:30:00 75.9 47.6 54.6 75.9 75.9 0.0 2.4 1.1 209.0 203.4 0.00 0.0446256 79.0
2020-08-10 07:35:00 76.5 47.5 55.0 76.5 76.5 0.0 0.0 0.0 204.0 0.0 0.00 0.0493329 79.0
2020-08-10 07:40:00 77.0 47.1 55.3 77.0 77.0 0.0 0.0 0.0 212.7 0.0 0.00 0.0542511 78.9
2020-08-10 07:45:00 77.2 45.3 54.4 77.2 77.2 1.3 2.2 0.9 227.5 236.6 0.00 0.0593922 78.9
2020-08-10 07:50:00 77.6 45.5 54.8 77.6 77.6 1.5 2.2 1.8 222.8 234.7 0.00 0.0639848 78.9
2020-08-10 07:55:00 78.3 43.4 54.2 78.3 78.3 0.0 1.9 1.1 213.6 210.6 0.00 0.0690280 78.9
2020-08-10 08:00:00 80.1 38.8 52.8 80.1 80.1 0.0 1.0 0.1 37.0 35.5 0.00 0.0741972 78.8
2020-08-10 08:05:00 80.8 36.3 51.6 80.8 80.8 2.8 3.7 2.5 63.7 53.6 0.00 0.0796160 78.8
2020-08-10 08:10:00 80.9 36.0 51.5 80.9 80.9 1.7 3.5 2.4 72.1 62.6 0.00 0.0849753 78.8
2020-08-10 08:15:00 81.8 35.2 51.6 81.8 81.8 0.0 3.3 1.6 139.8 87.6 0.00 0.0901794 78.7
2020-08-10 08:20:00 82.7 33.6 51.1 82.7 82.7 0.8 3.0 1.4 183.2 157.1 0.00 0.0952650 78.7
2020-08-10 08:25:00 81.4 42.2 56.2 81.4 81.2 4.2 4.7 3.0 188.9 199.6 0.00 0.1002552 78.7
2020-08-10 08:30:00 80.5 41.7 55.1 80.5 80.5 3.3 4.4 3.4 199.2 202.0 0.00 0.1056114 78.7
2020-08-10 08:35:00 81.0 43.3 56.5 81.0 80.9 3.5 4.0 2.9 206.7 185.2 0.00 0.1110784 78.7
2020-08-10 08:40:00 80.5 42.1 55.4 80.5 80.5 4.0 4.4 3.6 205.5 201.8 0.00 0.1164994 78.7
2020-08-10 08:45:00 81.4 41.8 56.0 81.4 81.2 2.8 4.2 2.9 197.8 186.5 0.00 0.1218223 78.7
2020-08-10 08:50:00 81.1 42.1 56.0 81.1 81.0 3.3 4.7 3.4 236.7 204.9 0.00 0.1268941 78.6
2020-08-10 08:55:00 80.8 41.4 55.2 80.8 80.7 2.8 4.4 3.4 205.2 205.7 0.00 0.1318244 78.6
2020-08-10 09:00:00 81.6 40.6 55.4 81.6 81.2 1.0 3.1 2.4 221.8 215.6 0.00 0.1368567 78.6
2020-08-10 09:05:00 82.4 38.5 54.6 82.4 82.4 2.8 3.8 2.8 209.4 198.2 0.00 0.1416319 78.6
2020-08-10 09:10:00 82.5 37.3 53.8 82.5 82.5 3.5 4.2 2.9 189.3 216.7 0.00 0.1465293 78.7
2020-08-10 09:15:00 83.7 37.3 54.9 83.7 83.7 1.5 3.7 2.0 213.9 185.0 0.00 0.1502932 78.6
2020-08-10 09:20:00 83.3 39.2 55.9 83.3 83.3 2.1 4.4 2.7 157.7 227.4 0.00 0.1550560 78.6
2020-08-10 09:25:00 83.4 38.7 55.7 83.4 83.4 3.0 4.2 2.4 237.2 219.2 0.00 0.1600775 78.6
2020-08-10 09:30:00 83.4 38.0 55.2 83.4 83.4 3.0 4.4 2.9 241.2 217.0 0.00 0.1647920 78.6
2020-08-10 09:35:00 83.8 37.5 55.1 83.8 83.8 2.4 3.7 2.5 230.5 220.7 0.00 0.1692231 78.6
2020-08-10 09:40:00 85.0 36.6 55.5 85.0 85.0 1.5 3.5 2.1 257.8 220.3 0.00 0.1739752 78.7
2020-08-10 09:45:00 85.4 36.1 55.5 85.4 85.4 1.3 3.3 2.0 262.1 232.2 0.00 0.1786794 78.7
2020-08-10 09:50:00 86.7 32.6 53.9 86.7 86.7 1.5 1.7 0.9 96.2 94.9 0.00 0.1831875 78.7
2020-08-10 09:55:00 87.4 32.0 54.0 87.4 87.4 2.8 3.5 1.9 42.1 91.2 0.00 0.1876553 78.7
2020-08-10 10:00:00 87.6 33.2 55.1 87.6 87.6 1.7 4.2 2.5 178.2 173.9 0.00 0.1918545 78.7
2020-08-10 10:05:00 87.4 33.5 55.2 87.4 87.4 3.1 4.2 2.7 200.1 210.9 0.00 0.1954386 78.8
2020-08-10 10:10:00 87.2 34.3 55.7 87.2 87.2 4.7 4.9 3.8 162.8 223.3 0.00 0.1997664 78.8
2020-08-10 10:15:00 87.7 32.7 54.8 87.7 87.7 3.5 4.0 3.1 210.5 194.3 0.00 0.2041126 78.8
2020-08-10 10:20:00 88.4 32.2 55.0 88.4 88.4 2.1 3.3 2.3 204.4 211.4 0.00 0.2079151 78.9
2020-08-10 10:25:00 89.8 32.8 56.7 89.8 89.8 2.2 3.8 1.9 258.5 185.5 0.00 0.2119989 78.9
2020-08-10 10:30:00 89.3 31.2 54.9 89.3 89.3 3.3 5.3 3.3 192.9 193.5 0.00 0.2155899 79.0
2020-08-10 10:35:00 89.2 31.0 54.6 89.2 89.2 2.2 4.9 3.1 116.8 224.5 0.00 0.2192970 79.0
2020-08-10 10:40:00 90.3 30.8 55.4 90.3 90.3 2.2 4.9 3.1 181.9 169.8 0.00 0.2230317 79.1
2020-08-10 10:45:00 90.1 33.0 57.1 90.1 90.1 2.6 4.4 3.0 226.0 195.4 0.00 0.2263550 79.1
2020-08-10 10:50:00 89.4 32.3 55.9 89.4 89.4 3.5 6.0 3.7 170.2 216.1 0.00 0.2295249 79.2
2020-08-10 10:55:00 90.4 31.6 56.2 90.4 90.4 3.1 4.6 2.8 156.5 197.8 0.00 0.2326881 79.3
2020-08-10 11:00:00 92.8 29.3 56.1 92.8 92.8 3.1 4.0 2.4 157.1 147.2 0.00 0.2361334 79.3
2020-08-10 11:05:00 91.3 30.2 55.8 91.3 91.3 2.8 5.3 3.8 191.5 195.1 0.00 0.2392843 79.4
2020-08-10 11:10:00 91.8 29.1 55.1 91.8 91.8 4.6 4.6 3.3 213.6 174.7 0.00 0.2418226 79.4
2020-08-10 11:15:00 92.6 29.0 55.7 92.6 92.6 4.9 4.9 3.4 155.8 175.7 0.00 0.2447898 79.5
2020-08-10 11:20:00 93.0 28.3 55.3 93.0 93.0 4.4 5.8 4.1 208.4 169.9 0.00 0.2473302 79.6
2020-08-10 11:25:00 93.2 27.8 55.1 93.2 93.2 4.2 5.5 3.2 215.0 171.2 0.00 0.2498613 79.7
2020-08-10 11:30:00 92.9 28.8 55.7 92.9 92.9 4.4 4.7 3.5 234.6 201.6 0.00 0.2522834 79.8
2020-08-10 11:35:00 93.8 27.2 55.0 93.8 93.8 1.0 8.0 3.4 76.9 188.6 0.00 0.2545790 79.9
2020-08-10 11:40:00 93.1 27.8 55.0 93.1 93.1 2.1 5.1 3.3 216.3 84.0 0.00 0.2561151 80.0
2020-08-10 11:45:00 94.0 25.9 53.7 94.0 94.0 3.5 4.2 2.3 125.3 239.4 0.00 0.2585861 80.1
2020-08-10 11:50:00 94.3 26.7 55.0 94.3 94.3 4.2 7.4 3.4 201.5 147.8 0.00 0.2611105 80.2
2020-08-10 11:55:00 93.5 27.1 54.6 93.5 93.5 3.5 6.3 4.4 231.5 198.1 0.00 0.2621259 80.3
2020-08-10 12:00:00 93.4 28.2 55.6 93.4 93.4 5.8 6.5 4.9 167.5 225.7 0.00 0.2634903 80.4
2020-08-10 12:05:00 95.1 26.6 55.4 95.1 95.1 2.8 5.1 2.8 176.6 174.5 0.00 0.2653208 80.6
2020-08-10 12:10:00 95.5 25.0 54.2 95.5 95.5 2.6 5.6 3.5 160.0 208.9 0.00 0.2677792 80.7
2020-08-10 12:15:00 97.2 21.9 51.9 97.2 97.2 7.4 7.4 3.4 91.4 143.6 0.00 0.2694887 80.8
2020-08-10 12:20:00 97.0 22.2 52.1 97.0 97.0 3.0 6.9 2.9 156.1 129.2 0.00 0.2707336 81.0
2020-08-10 12:25:00 97.3 21.5 51.5 97.3 97.3 0.0 6.5 3.6 182.9 186.5 0.00 0.2706769 81.1
2020-08-10 12:30:00 97.7 22.9 53.6 97.7 97.7 5.1 6.5 3.3 215.5 196.7 0.00 0.2721938 81.3
2020-08-10 12:35:00 97.4 20.6 50.4 97.4 97.4 4.4 7.2 4.8 183.4 197.2 0.00 0.2739046 81.4
2020-08-10 12:40:00 96.8 21.4 50.9 96.8 96.8 2.1 6.2 3.8 233.1 209.9 0.00 0.2749725 81.6
2020-08-10 12:45:00 97.9 19.7 49.6 97.9 97.9 3.1 6.2 3.7 122.1 187.5 0.00 0.2759236 81.7
2020-08-10 12:50:00 97.5 19.7 49.2 97.5 97.5 3.0 5.8 3.3 201.5 183.1 0.00 0.2768954 81.9
2020-08-10 12:55:00 96.6 20.1 49.2 96.6 96.6 0.8 6.9 4.6 33.7 238.5 0.00 0.2768491 82.0
2020-08-10 13:00:00 97.4 20.7 50.6 97.4 97.4 4.9 6.5 3.0 246.4 340.0 0.00 0.2769236 82.2
2020-08-10 13:05:00 97.3 21.0 50.9 97.3 97.3 4.6 6.5 3.7 251.0 251.9 0.00 0.2775144 82.4
2020-08-10 13:10:00 97.7 20.8 50.9 97.7 97.7 4.6 6.2 4.4 195.6 227.7 0.00 0.2778875 82.5
2020-08-10 13:15:00 99.7 19.1 50.2 99.7 99.7 3.1 5.8 3.2 170.3 169.7 0.00 0.2785591 82.7
2020-08-10 13:20:00 100.2 19.6 51.4 100.2 100.2 7.6 7.6 3.3 231.7 197.9 0.00 0.2791462 82.9
2020-08-10 13:25:00 98.2 20.4 50.8 98.2 98.2 4.0 11.0 4.5 259.2 251.4 0.00 0.2787864 83.0
2020-08-10 13:30:00 97.4 19.8 49.4 97.4 97.4 3.7 8.1 5.5 251.8 248.3 0.00 0.2783985 83.2
2020-08-10 13:35:00 98.3 19.6 49.9 98.3 98.3 4.7 5.5 3.4 199.1 231.0 0.00 0.2785781 83.3
2020-08-10 13:40:00 99.4 19.1 49.9 99.4 99.4 5.3 5.3 2.7 163.3 180.5 0.00 0.2786753 83.5

Data is courtesy of the NM Climate Center. DO NOT USE IN LEGAL PROCEEDINGS.